NCAR-RAP Real-Time Weather Data

Output produced by METARs form (01 December 2020  17:21 UTC)
found at http://weather.rap.ucar.edu/surface/
 
KFNT 011653Z 31015G25KT 10SM OVC020 M01/M06 A2979 RMK AO2 SLP096 T10061061
KFNT 011553Z 32014G22KT 10SM OVC020 M01/M06 A2979 RMK AO2 SLP097 T10111061
KFNT 011453Z 32012G23KT 10SM OVC020 M02/M07 A2979 RMK AO2 SLP098 60001 T10171067 51002
KFNT 011353Z 32013KT 10SM OVC021 M02/M07 A2979 RMK AO2 SNE44 SLP097 P0000 T10221067
KFNT 011253Z 32011KT 2SM -SN OVC022 M03/M06 A2979 RMK AO2 SNB00 SLP097 P0001 T10281061 $
KFNT 011244Z 31009KT 2SM -SN OVC024 M03/M06 A2979 RMK AO2 SNB00 P0000 T10281061 $
KFNT 011153Z 32013G20KT 10SM OVC021 M02/M07 A2978 RMK AO2 SLP095 60000 70005 T10221072 11011 21022 53005 $
KFNT 011053Z 33014G23KT 10SM OVC020 M02/M07 A2977 RMK AO2 PK WND 35028/1038 SLP093 T10221072 $
KFNT 010953Z 33014G21KT 10SM OVC021 M02/M07 A2977 RMK AO2 SLP089 T10221072 $
KFNT 010853Z 33010G20KT 10SM OVC022 M02/M07 A2977 RMK AO2 SLP089 60000 T10171072 56000 $
KFNT 010753Z 33011G19KT 10SM OVC022 M02/M07 A2977 RMK AO2 SLP090 T10171067
KFNT 010653Z 33015G22KT 10SM OVC022 M01/M07 A2977 RMK AO2 SNE10 SLP088 P0000 T10111067
KFNT 010553Z 33010KT 5SM -SN BKN026 OVC030 M02/M06 A2977 RMK AO2 SLP090 P0001 60001 T10171056 10000 21017 58004
KFNT 010546Z 34011KT 4SM -SN BKN026 OVC031 M02/M06 A2977 RMK AO2 P0001 T10171056
KFNT 010501Z 33013KT 3SM -SN FEW018 SCT027 OVC035 M01/M05 A2978 RMK AO2 P0000 T10111050
KFNT 010453Z 33012KT 3SM -SN FEW016 BKN026 OVC035 M01/M05 A2978 RMK AO2 SLP092 P0000 T10111050 400561011
KFNT 010353Z AUTO 34016G22KT 7SM -SN OVC022 M01/M06 A2977 RMK AO2 PK WND 33026/0315 SNB02 SLP090 P0000 T10061056
KFNT 010253Z AUTO 32015G23KT 10SM OVC021 M01/M06 A2978 RMK AO2 PK WND 33027/0238 SLP093 T10061056 50003
KFNT 010153Z AUTO 33017G22KT 10SM OVC020 00/M05 A2978 RMK AO2 SLP094 T00001050